Time;durP1;ratioP1;P1;durP2;ratioP2;P2;SDS_P1;SDS_P2;PMS_P1;PMS_P2;Temp;Humidity;BMP_temperature;BMP_pressure;BME280_temperature;BME280_humidity;BME280_pressure;Samples;Min_cycle;Max_cycle;Signal;HPM_P1;HPM_P2
2021/07/12 00:00:43;;;;;;;3.87;3.30;;;;;;;29.09;30.62;100952.00;144992;700;6004;-82
2021/07/12 00:03:09;;;;;;;3.45;3.00;;;;;;;29.10;30.52;100951.91;144992;578;6005;-83
2021/07/12 00:05:36;;;;;;;5.15;3.17;;;;;;;29.09;30.55;100947.50;144992;585;6004;-83
2021/07/12 00:08:04;;;;;;;4.05;3.12;;;;;;;29.09;30.74;100949.31;144992;644;6004;-84
2021/07/12 00:10:31;;;;;;;4.00;3.33;;;;;;;29.11;30.58;100959.03;144992;625;6004;-84
2021/07/12 00:12:58;;;;;;;6.50;3.03;;;;;;;29.12;30.74;100947.38;144992;688;6004;-84
2021/07/12 00:15:29;;;;;;;3.95;3.20;;;;;;;29.10;30.45;100943.91;144992;671;6004;-83
2021/07/12 00:17:56;;;;;;;3.97;3.58;;;;;;;29.07;30.69;100948.53;144992;596;6004;-83
2021/07/12 00:20:23;;;;;;;3.47;3.10;;;;;;;29.06;30.47;100942.28;144992;673;6004;-82
2021/07/12 00:22:53;;;;;;;4.60;3.35;;;;;;;29.06;30.48;100939.63;144992;653;6004;-82
2021/07/12 00:25:21;;;;;;;4.93;3.28;;;;;;;29.07;30.83;100943.19;144992;611;6011;-83
2021/07/12 00:27:48;;;;;;;3.80;3.47;;;;;;;29.08;30.70;100947.56;144992;580;6013;-84
2021/07/12 00:30:18;;;;;;;6.22;3.35;;;;;;;29.08;30.53;100951.13;144992;620;6004;-84
2021/07/12 00:32:53;;;;;;;6.70;3.60;;;;;;;29.04;30.68;100952.19;144992;561;6004;-84
2021/07/12 00:35:20;;;;;;;6.57;4.00;;;;;;;28.97;31.42;100947.16;144992;604;6004;-83
2021/07/12 00:37:47;;;;;;;6.55;4.35;;;;;;;28.97;31.63;100942.72;144991;565;6000;-85
2021/07/12 00:40:16;;;;;;;5.45;4.10;;;;;;;28.85;32.66;100946.78;144992;593;6002;-84
2021/07/12 00:42:44;;;;;;;6.25;3.85;;;;;;;28.82;31.91;100952.25;144992;587;6002;-84
2021/07/12 00:45:14;;;;;;;8.20;4.55;;;;;;;28.83;31.81;100951.31;144992;575;6002;-84
2021/07/12 00:47:41;;;;;;;9.50;5.45;;;;;;;28.87;32.41;100952.94;144992;595;6002;-84
2021/07/12 00:50:12;;;;;;;6.22;4.70;;;;;;;28.86;32.43;100951.19;144992;583;6002;-82
2021/07/12 00:52:38;;;;;;;7.12;4.30;;;;;;;28.87;32.18;100955.63;144992;596;6002;-83
2021/07/12 00:55:24;;;;;;;13.90;5.22;;;;;;;28.87;32.20;100960.06;144992;600;6002;-82
2021/07/12 00:57:51;;;;;;;5.87;4.93;;;;;;;28.84;32.80;100961.09;144992;673;6002;-83
2021/07/12 01:00:20;;;;;;;8.32;5.10;;;;;;;28.83;33.06;100955.81;144992;578;6002;-85
2021/07/12 01:02:47;;;;;;;6.45;4.62;;;;;;;28.80;32.71;100959.47;144992;667;6002;-84
2021/07/12 01:05:17;;;;;;;5.20;4.68;;;;;;;28.81;32.49;100958.53;144992;577;6002;-84
2021/07/12 01:07:44;;;;;;;6.65;4.30;;;;;;;28.83;32.74;100954.00;144992;655;6002;-84
2021/07/12 01:10:14;;;;;;;5.50;4.40;;;;;;;28.86;32.63;100953.88;144992;587;6003;-83
2021/07/12 01:13:25;;;;;;;6.37;4.40;;;;;;;28.83;32.69;100953.13;144992;586;6002;-84
2021/07/12 01:16:20;;;;;;;5.55;3.95;;;;;;;28.81;32.72;100949.63;144993;561;6000;-83
2021/07/12 01:19:22;;;;;;;5.85;3.80;;;;;;;28.86;32.29;100953.00;144993;655;6000;-83
2021/07/12 01:22:37;;;;;;;5.22;3.80;;;;;;;28.84;32.61;100952.19;144993;570;6002;-83
2021/07/12 01:25:54;;;;;;;4.97;3.72;;;;;;;28.86;32.33;100950.34;144993;584;6002;-84
2021/07/12 01:29:01;;;;;;;6.93;3.55;;;;;;;28.90;32.54;100943.91;144993;572;6000;-84
2021/07/12 01:32:06;;;;;;;5.15;4.03;;;;;;;28.92;32.30;100947.38;144993;593;6002;-84
2021/07/12 01:35:09;;;;;;;4.57;3.80;;;;;;;28.93;32.37;100946.44;144993;585;6002;-84
2021/07/12 01:37:51;;;;;;;5.47;3.83;;;;;;;28.93;32.10;100944.63;144993;713;6000;-84
2021/07/12 01:41:01;;;;;;;4.80;4.30;;;;;;;28.94;32.30;100949.06;144993;587;6002;-84
2021/07/12 01:43:51;;;;;;;8.63;4.80;;;;;;;28.94;32.38;100941.03;144993;572;6000;-83
2021/07/12 01:46:48;;;;;;;7.32;4.47;;;;;;;28.90;32.57;100942.09;144992;670;6000;-83
2021/07/12 01:49:35;;;;;;;4.82;4.37;;;;;;;28.88;32.59;100938.63;144992;601;6000;-85
2021/07/12 01:52:16;;;;;;;5.72;4.72;;;;;;;28.91;32.78;100938.50;144992;585;6000;-83
2021/07/12 01:55:26;;;;;;;7.82;4.43;;;;;;;28.90;32.88;100939.41;144992;691;6000;-83
2021/07/12 01:58:14;;;;;;;5.53;4.53;;;;;;;28.92;32.69;100937.56;144992;571;6002;-84
2021/07/12 02:00:45;;;;;;;4.93;4.45;;;;;;;28.95;32.67;100945.47;144993;563;6002;-82
2021/07/12 02:03:15;;;;;;;6.57;4.60;;;;;;;28.97;32.65;100942.72;144993;572;6002;-85
2021/07/12 02:05:44;;;;;;;4.80;3.92;;;;;;;28.93;32.56;100947.31;144993;565;6002;-83
2021/07/12 02:08:16;;;;;;;5.62;4.55;;;;;;;28.95;32.96;100947.25;144993;599;6002;-84
2021/07/12 02:10:45;;;;;;;6.05;4.35;;;;;;;28.96;33.00;100943.66;144993;598;6002;-83
2021/07/12 02:13:14;;;;;;;6.10;4.35;;;;;;;28.97;32.88;100945.41;144993;582;6002;-84
2021/07/12 02:15:46;;;;;;;6.18;4.22;;;;;;;28.98;32.88;100946.25;144993;585;6002;-84
2021/07/12 02:18:16;;;;;;;10.20;4.28;;;;;;;28.98;33.26;100948.91;144993;586;6002;-84
2021/07/12 02:20:46;;;;;;;6.72;4.43;;;;;;;28.97;33.13;100947.16;144993;575;6002;-84
2021/07/12 02:23:15;;;;;;;5.00;4.50;;;;;;;28.97;33.15;100945.41;144993;563;6002;-84
2021/07/12 02:25:45;;;;;;;10.35;4.47;;;;;;;28.98;33.26;100947.09;144993;591;6002;-83
2021/07/12 02:28:13;;;;;;;5.35;4.35;;;;;;;28.97;33.50;100942.72;144993;599;6002;-83
2021/07/12 02:30:43;;;;;;;5.68;4.35;;;;;;;28.99;33.43;100953.34;144993;569;6010;-84
2021/07/12 02:33:11;;;;;;;6.20;4.62;;;;;;;29.00;33.26;100950.59;144993;577;6002;-83
2021/07/12 02:35:38;;;;;;;6.28;4.78;;;;;;;29.00;33.38;100947.03;144993;684;6002;-83
2021/07/12 02:38:08;;;;;;;6.85;4.70;;;;;;;28.98;33.40;100948.91;144993;583;6002;-82
2021/07/12 02:40:36;;;;;;;5.62;4.30;;;;;;;28.97;33.21;100955.19;144992;583;6002;-83
2021/07/12 02:43:05;;;;;;;9.15;4.85;;;;;;;28.93;33.26;100949.97;144993;570;6002;-84
2021/07/12 02:45:35;;;;;;;9.77;4.80;;;;;;;28.92;33.50;100950.94;144993;634;6002;-85
2021/07/12 02:48:02;;;;;;;8.52;5.28;;;;;;;28.91;33.03;100951.00;144993;596;6002;-84
2021/07/12 02:50:33;;;;;;;9.25;4.65;;;;;;;28.92;33.24;100950.94;144993;609;6002;-83
2021/07/12 02:53:13;;;;;;;7.05;4.35;;;;;;;28.91;33.48;100949.19;144993;563;6002;-83
2021/07/12 02:55:41;;;;;;;9.30;4.75;;;;;;;28.92;33.33;100952.72;144994;594;5002;-82
2021/07/12 02:58:09;;;;;;;8.18;4.40;;;;;;;28.90;33.38;100957.28;144994;598;5002;-83
2021/07/12 03:00:35;;;;;;;7.43;5.15;;;;;;;28.86;33.44;100961.88;144994;577;5002;-82
2021/07/12 03:03:03;;;;;;;10.52;5.53;;;;;;;28.82;33.34;100959.41;144994;577;5002;-84
2021/07/12 03:05:30;;;;;;;18.42;8.90;;;;;;;28.77;33.39;100960.47;144994;569;5002;-84
2021/07/12 03:08:16;;;;;;;14.35;9.57;;;;;;;28.75;33.89;100962.34;144994;579;5002;-83
2021/07/12 03:11:05;;;;;;;17.83;9.32;;;;;;;28.73;33.92;100963.31;144994;594;5002;-82
2021/07/12 03:13:58;;;;;;;13.88;8.45;;;;;;;28.74;33.70;100960.59;144994;593;5004;-83
2021/07/12 03:16:27;;;;;;;15.50;7.75;;;;;;;28.72;33.98;100967.81;144994;572;5002;-84
2021/07/12 03:19:01;;;;;;;12.82;6.93;;;;;;;28.69;33.99;100967.94;144994;684;5002;-84
2021/07/12 03:21:29;;;;;;;14.38;6.87;;;;;;;28.69;34.06;100969.75;144994;594;5002;-84
2021/07/12 03:23:58;;;;;;;11.93;6.55;;;;;;;28.66;34.36;100967.19;144994;579;5002;-82
2021/07/12 03:26:26;;;;;;;11.38;5.60;;;;;;;28.67;34.21;100963.59;144994;583;5002;-84
2021/07/12 03:28:54;;;;;;;8.02;5.60;;;;;;;28.69;34.81;100967.06;144994;589;5002;-83
2021/07/12 03:31:25;;;;;;;10.20;5.60;;;;;;;28.64;34.96;100966.41;144994;722;5002;-83
2021/07/12 03:33:54;;;;;;;11.43;6.03;;;;;;;28.51;34.87;100972.22;144994;598;5002;-85
2021/07/12 03:36:22;;;;;;;12.80;5.50;;;;;;;28.46;34.95;100981.34;144994;671;5002;-84
2021/07/12 03:38:49;;;;;;;12.00;5.30;;;;;;;28.47;34.98;100981.28;144994;618;5002;-83
2021/07/12 03:41:17;;;;;;;15.57;5.65;;;;;;;28.51;34.91;100984.72;144994;715;5002;-85
2021/07/12 03:43:43;;;;;;;8.75;5.15;;;;;;;28.52;35.17;100989.97;144994;735;5002;-84
2021/07/12 03:46:10;;;;;;;9.55;5.30;;;;;;;28.56;35.13;100986.25;144994;599;5002;-84
2021/07/12 03:48:42;;;;;;;8.90;5.22;;;;;;;28.57;35.13;100996.03;144994;638;5002;-83
2021/07/12 03:51:12;;;;;;;6.68;4.80;;;;;;;28.61;35.00;100996.75;144994;588;5002;-83
2021/07/12 03:53:39;;;;;;;7.22;4.87;;;;;;;28.63;34.84;100991.38;144994;655;5002;-85
2021/07/12 03:56:07;;;;;;;7.87;4.78;;;;;;;28.62;35.02;100993.16;144994;575;5002;-83
2021/07/12 03:58:34;;;;;;;12.70;5.47;;;;;;;28.63;35.02;100992.22;144994;594;5002;-84
2021/07/12 04:01:01;;;;;;;11.80;5.70;;;;;;;28.64;35.30;100998.44;144994;568;5002;-84
2021/07/12 04:03:27;;;;;;;13.85;6.10;;;;;;;28.63;35.21;100999.37;144994;581;5002;-84
2021/07/12 04:05:54;;;;;;;10.20;5.82;;;;;;;28.62;35.53;101003.84;144994;642;5002;-83
2021/07/12 04:08:20;;;;;;;9.15;5.82;;;;;;;28.62;35.07;101001.19;144994;554;5002;-84
2021/07/12 04:10:54;;;;;;;9.52;5.87;;;;;;;28.65;35.59;100997.50;144994;679;5002;-84
2021/07/12 04:13:21;;;;;;;;;;;;;;;28.71;35.56;101005.25;144998;930;5002;-83
2021/07/12 04:15:48;;;;;;;14.18;5.93;;;;;;;28.73;35.24;101004.28;144998;563;5002;-83
2021/07/12 04:18:14;;;;;;;11.38;5.53;;;;;;;28.77;35.21;101003.19;144994;598;5002;-84
2021/07/12 04:20:41;;;;;;;9.77;5.72;;;;;;;28.79;35.22;101004.94;144994;574;5002;-84
2021/07/12 04:23:10;;;;;;;8.50;5.70;;;;;;;28.82;35.33;101004.81;144994;587;5002;-82
2021/07/12 04:25:37;;;;;;;11.82;5.93;;;;;;;28.83;35.53;101007.44;144993;590;5002;-84
2021/07/12 04:28:04;;;;;;;9.68;5.97;;;;;;;28.87;35.78;101008.16;144994;573;5002;-84
2021/07/12 04:30:30;;;;;;;17.37;6.22;;;;;;;28.89;35.34;101007.16;144994;570;5002;-84
2021/07/12 04:32:57;;;;;;;8.90;5.47;;;;;;;28.90;35.73;101008.88;144994;565;5002;-83
2021/07/12 04:35:23;;;;;;;12.27;6.05;;;;;;;28.84;36.07;101019.87;144994;689;5002;-84
2021/07/12 04:37:50;;;;;;;12.25;6.10;;;;;;;28.86;35.62;101015.31;144993;598;5002;-83
2021/07/12 04:40:16;;;;;;;7.93;5.95;;;;;;;28.90;36.05;101014.22;144994;565;5002;-84
2021/07/12 04:42:43;;;;;;;15.95;6.30;;;;;;;28.91;35.77;101015.97;144994;596;5002;-84
2021/07/12 04:45:10;;;;;;;10.13;5.87;;;;;;;28.88;35.75;101017.91;144994;585;5002;-84
2021/07/12 04:47:37;;;;;;;9.35;5.62;;;;;;;28.87;35.97;101019.75;144994;576;5002;-84
2021/07/12 04:50:08;;;;;;;12.37;5.28;;;;;;;28.91;36.37;101020.47;144994;579;5002;-84
2021/07/12 04:52:34;;;;;;;10.73;5.62;;;;;;;28.95;36.04;101022.94;144994;581;5002;-84
2021/07/12 04:55:17;;;;;;;14.25;5.50;;;;;;;28.95;36.26;101022.94;144994;617;5002;-83
2021/07/12 04:57:47;;;;;;;8.10;5.40;;;;;;;29.02;36.21;101028.88;144994;613;5002;-84
2021/07/12 05:00:14;;;;;;;8.90;5.90;;;;;;;29.08;35.85;101027.75;144994;571;5002;-83
2021/07/12 05:02:41;;;;;;;9.43;5.90;;;;;;;29.15;35.64;101037.25;144994;576;5002;-85
2021/07/12 05:05:09;;;;;;;10.18;5.85;;;;;;;29.21;35.84;101029.00;144994;766;5002;-84
2021/07/12 05:07:35;;;;;;;15.88;6.65;;;;;;;29.24;35.71;101028.88;144994;741;5002;-85
2021/07/12 05:10:03;;;;;;;7.80;6.15;;;;;;;29.31;35.56;101029.47;144994;593;5002;-84
2021/07/12 05:12:31;;;;;;;10.80;6.72;;;;;;;29.37;35.53;101034.53;144994;619;5002;-83
2021/07/12 05:14:58;;;;;;;11.55;6.75;;;;;;;29.38;35.40;101022.03;144994;638;5002;-85
2021/07/12 05:17:24;;;;;;;10.80;6.70;;;;;;;29.35;35.32;101024.84;144994;751;5002;-84
2021/07/12 05:19:51;;;;;;;14.38;7.97;;;;;;;29.31;35.44;101029.47;144994;611;5002;-84
2021/07/12 05:22:17;;;;;;;20.05;8.52;;;;;;;29.20;35.81;101037.94;144994;571;5002;-84
2021/07/12 05:24:44;;;;;;;13.73;7.70;;;;;;;29.20;35.61;101029.06;144994;585;5002;-84
2021/07/12 05:27:10;;;;;;;12.27;7.65;;;;;;;29.21;36.28;101033.50;144994;658;5002;-85
2021/07/12 05:29:37;;;;;;;17.15;8.63;;;;;;;29.27;36.19;101034.09;144994;585;5002;-85
2021/07/12 05:32:04;;;;;;;13.77;9.00;;;;;;;29.33;35.65;101037.41;144994;600;5002;-83
2021/07/12 05:34:31;;;;;;;15.82;7.95;;;;;;;29.31;36.74;101046.38;144993;570;5002;-83
2021/07/12 05:36:57;;;;;;;12.05;8.00;;;;;;;29.31;36.22;101040.16;144994;607;5002;-84
2021/07/12 05:39:24;;;;;;;20.40;8.40;;;;;;;29.37;36.03;101041.72;144994;569;5002;-84
2021/07/12 05:41:51;;;;;;;15.35;8.38;;;;;;;29.40;36.84;101045.09;144994;605;5002;-83
2021/07/12 05:44:19;;;;;;;12.50;7.55;;;;;;;29.43;36.25;101038.75;144994;585;5002;-83
2021/07/12 05:46:46;;;;;;;11.70;7.80;;;;;;;29.56;36.19;101039.06;144994;656;5002;-83
2021/07/12 05:49:14;;;;;;;10.55;7.10;;;;;;;29.69;36.42;101048.28;144994;645;5002;-83
2021/07/12 05:51:40;;;;;;;13.13;7.40;;;;;;;29.82;36.46;101041.47;144994;669;5002;-84
2021/07/12 05:54:08;;;;;;;15.52;7.60;;;;;;;29.95;35.84;101039.09;144994;564;5002;-86
2021/07/12 05:56:35;;;;;;;14.95;7.37;;;;;;;29.99;36.02;101040.69;144994;588;5002;-87
2021/07/12 05:59:02;;;;;;;11.48;7.72;;;;;;;30.16;36.30;101039.91;144994;707;5002;-81
2021/07/12 06:01:28;;;;;;;11.38;6.12;;;;;;;30.29;35.95;101037.50;144994;664;5002;-83
2021/07/12 06:03:55;;;;;;;9.52;6.90;;;;;;;30.32;35.83;101042.72;144994;606;5002;-83
2021/07/12 06:06:21;;;;;;;10.40;6.65;;;;;;;30.39;35.57;101046.84;144994;638;5002;-84
2021/07/12 06:08:48;;;;;;;10.02;6.82;;;;;;;30.34;35.12;101045.34;144994;589;5002;-84
2021/07/12 06:11:14;;;;;;;8.90;6.50;;;;;;;30.26;35.93;101045.69;144993;585;5002;-82
2021/07/12 06:13:42;;;;;;;13.13;7.12;;;;;;;30.19;35.69;101053.16;144994;575;5002;-84
2021/07/12 06:16:10;;;;;;;8.23;6.65;;;;;;;30.18;35.84;101047.88;144994;586;5002;-85
2021/07/12 06:18:37;;;;;;;13.45;6.72;;;;;;;30.18;35.48;101059.44;144994;722;5002;-82
2021/07/12 06:21:03;;;;;;;6.93;5.45;;;;;;;30.18;35.17;101059.44;144994;690;5002;-83
2021/07/12 06:23:30;;;;;;;7.78;6.10;;;;;;;30.16;35.60;101049.72;144993;569;5002;-82
2021/07/12 06:25:56;;;;;;;9.20;5.75;;;;;;;30.12;35.44;101054.37;144994;564;5002;-83
2021/07/12 06:28:23;;;;;;;8.25;5.65;;;;;;;30.13;35.95;101061.47;144994;597;5002;-83
2021/07/12 06:30:49;;;;;;;8.35;5.55;;;;;;;29.95;35.95;101062.31;144994;576;5002;-82
2021/07/12 06:33:16;;;;;;;8.68;5.50;;;;;;;30.07;36.95;101061.75;144994;648;5002;-83
2021/07/12 06:35:43;;;;;;;7.50;5.62;;;;;;;30.06;36.73;101068.03;144994;590;5002;-82
2021/07/12 06:38:09;;;;;;;10.32;6.00;;;;;;;29.87;38.52;101060.00;144994;729;5002;-84
2021/07/12 06:40:36;;;;;;;12.15;6.20;;;;;;;29.78;39.17;101068.41;144994;691;5002;-84
2021/07/12 06:43:02;;;;;;;8.25;5.60;;;;;;;29.81;39.47;101060.25;144994;574;5002;-83
2021/07/12 06:45:29;;;;;;;11.68;6.07;;;;;;;29.79;39.96;101071.03;144994;591;5003;-83
2021/07/12 06:47:55;;;;;;;7.07;6.12;;;;;;;29.72;39.86;101072.22;144994;569;5002;-83
2021/07/12 06:50:22;;;;;;;7.53;5.65;;;;;;;29.76;41.83;101078.31;144994;573;5002;-83
2021/07/12 06:52:49;;;;;;;5.82;4.90;;;;;;;29.78;39.98;101063.94;144994;676;5002;-83
2021/07/12 06:55:15;;;;;;;7.25;5.97;;;;;;;29.65;41.51;101065.41;144994;592;5002;-83
2021/07/12 06:57:42;;;;;;;12.85;5.43;;;;;;;29.78;40.10;101071.97;144994;579;5002;-84
2021/07/12 07:00:11;;;;;;;7.78;5.47;;;;;;;29.83;39.45;101064.63;144994;582;5002;-84
2021/07/12 07:02:37;;;;;;;7.25;4.78;;;;;;;29.86;38.46;101066.28;144994;575;5002;-83
2021/07/12 07:05:05;;;;;;;6.28;5.05;;;;;;;29.92;38.60;101062.44;144994;578;5002;-84
2021/07/12 07:07:31;;;;;;;10.88;5.50;;;;;;;29.89;40.05;101059.91;144994;565;5002;-85
2021/07/12 07:09:58;;;;;;;10.32;5.70;;;;;;;29.89;38.66;101060.81;144994;569;5002;-84
2021/07/12 07:12:24;;;;;;;10.57;5.60;;;;;;;29.93;35.69;101058.84;144994;606;5002;-83
2021/07/12 07:14:50;;;;;;;16.02;5.80;;;;;;;30.15;37.31;101056.03;144994;575;5002;-83
2021/07/12 07:17:17;;;;;;;9.75;6.03;;;;;;;30.13;36.98;101061.47;144994;565;5002;-84
2021/07/12 07:19:43;;;;;;;7.43;5.65;;;;;;;30.19;36.31;101068.31;144994;575;5002;-83
2021/07/12 07:22:10;;;;;;;8.85;5.70;;;;;;;30.26;36.33;101064.44;144994;584;5002;-84
2021/07/12 07:24:36;;;;;;;7.50;5.60;;;;;;;30.33;36.32;101063.19;144994;608;5002;-83
2021/07/12 07:27:04;;;;;;;6.68;4.93;;;;;;;30.41;35.51;101062.00;144993;589;4574;-84
2021/07/12 07:29:32;;;;;;;6.60;5.68;;;;;;;30.56;35.38;101059.44;144994;696;4572;-84
2021/07/12 07:31:59;;;;;;;10.00;5.78;;;;;;;30.54;35.11;101058.66;144994;674;4572;-85
2021/07/12 07:34:25;;;;;;;16.12;6.05;;;;;;;30.63;35.31;101057.34;144992;564;6002;-84
2021/07/12 07:36:53;;;;;;;8.13;5.53;;;;;;;30.74;34.84;101057.66;144992;605;6002;-85
2021/07/12 07:39:19;;;;;;;10.88;5.70;;;;;;;30.83;35.31;101052.78;144992;588;6002;-83
2021/07/12 07:41:46;;;;;;;8.75;5.90;;;;;;;30.89;34.76;101053.38;144992;615;6002;-84
2021/07/12 07:44:14;;;;;;;9.57;5.75;;;;;;;30.95;33.42;101046.81;144992;580;6002;-84
2021/07/12 07:46:42;;;;;;;8.27;5.68;;;;;;;31.08;34.42;101056.00;144992;576;6002;-84
2021/07/12 07:49:08;;;;;;;6.70;5.30;;;;;;;31.21;32.93;101052.69;144992;592;6002;-84
2021/07/12 07:51:37;;;;;;;8.52;5.18;;;;;;;31.41;32.92;101051.66;144992;623;6002;-82
2021/07/12 07:54:05;;;;;;;9.23;5.12;;;;;;;31.35;32.21;101047.47;144992;586;6002;-84
2021/07/12 07:56:32;;;;;;;5.90;4.72;;;;;;;31.25;31.28;101059.63;144992;572;6002;-83
2021/07/12 07:58:59;;;;;;;8.85;5.03;;;;;;;31.45;32.22;101062.16;144992;593;6002;-83
2021/07/12 08:01:25;;;;;;;7.85;5.43;;;;;;;31.42;32.20;101056.94;144992;571;6002;-84
2021/07/12 08:03:51;;;;;;;11.23;5.37;;;;;;;31.35;31.59;101058.19;144992;569;6002;-83
2021/07/12 08:06:18;;;;;;;7.30;4.80;;;;;;;31.36;29.71;101059.09;144992;600;6002;-83
2021/07/12 08:08:45;;;;;;;6.15;4.20;;;;;;;31.33;30.90;101054.75;144992;566;6002;-83
2021/07/12 08:11:12;;;;;;;7.90;4.70;;;;;;;31.14;30.78;101059.31;144992;607;6002;-83
2021/07/12 08:13:39;;;;;;;7.35;4.40;;;;;;;31.15;30.81;101061.03;144992;599;6002;-83
2021/07/12 08:16:06;;;;;;;6.50;4.75;;;;;;;31.15;30.48;101053.00;144992;564;6002;-83
2021/07/12 08:18:32;;;;;;;5.05;4.35;;;;;;;31.09;29.93;101056.88;144992;589;6002;-83
2021/07/12 08:20:59;;;;;;;6.37;4.12;;;;;;;31.13;29.56;101057.59;144992;608;6002;-86
2021/07/12 08:23:26;;;;;;;5.30;4.75;;;;;;;30.96;30.68;101056.63;144992;571;6002;-85
2021/07/12 08:25:55;;;;;;;4.85;4.25;;;;;;;31.07;30.38;101067.69;144992;564;6002;-83
2021/07/12 08:28:25;;;;;;;5.37;3.83;;;;;;;31.21;29.89;101072.34;144992;625;6002;-85
2021/07/12 08:30:52;;;;;;;8.13;4.22;;;;;;;31.24;29.72;101064.16;144992;585;6002;-83
2021/07/12 08:33:21;;;;;;;5.65;4.10;;;;;;;31.20;29.78;101069.75;144992;585;6002;-82
2021/07/12 08:35:49;;;;;;;6.45;3.75;;;;;;;31.08;28.99;101066.72;144992;621;6002;-84
2021/07/12 08:38:18;;;;;;;5.37;4.53;;;;;;;31.18;30.29;101064.44;144992;601;6002;-84
2021/07/12 08:40:45;;;;;;;6.12;4.25;;;;;;;31.18;30.36;101063.56;144992;624;6002;-84
2021/07/12 08:43:12;;;;;;;5.20;4.32;;;;;;;31.10;30.82;101066.63;144992;592;6002;-83
2021/07/12 08:45:38;;;;;;;6.97;4.10;;;;;;;31.09;31.11;101057.72;144992;589;6002;-84
2021/07/12 08:48:05;;;;;;;6.65;4.78;;;;;;;31.12;31.88;101056.72;144992;579;6002;-86
2021/07/12 08:50:34;;;;;;;5.72;4.32;;;;;;;31.14;32.96;101064.69;144992;613;6002;-83
2021/07/12 08:53:01;;;;;;;6.85;4.40;;;;;;;31.09;33.99;101067.59;144992;630;6002;-86
2021/07/12 08:55:27;;;;;;;7.65;4.97;;;;;;;31.13;33.33;101054.91;144992;629;6002;-84
2021/07/12 08:58:09;;;;;;;7.43;4.50;;;;;;;31.17;35.48;101067.22;144992;580;6002;-82
2021/07/12 09:01:06;;;;;;;8.30;4.68;;;;;;;31.22;35.15;101070.53;144992;603;6002;-83
2021/07/12 09:03:37;;;;;;;6.45;4.70;;;;;;;31.40;34.01;101060.63;144992;586;6004;-85
2021/07/12 09:06:16;;;;;;;8.73;4.90;;;;;;;31.34;35.80;101067.22;144992;584;6004;-83
2021/07/12 09:08:56;;;;;;;6.35;5.30;;;;;;;31.61;35.05;101064.03;144992;614;6004;-82
2021/07/12 09:11:34;;;;;;;8.13;5.22;;;;;;;31.53;35.42;101055.53;144992;600;6004;-84
2021/07/12 09:14:11;;;;;;;8.57;5.55;;;;;;;31.56;36.11;101058.06;144992;588;6004;-83
2021/07/12 09:16:47;;;;;;;9.65;4.93;;;;;;;31.79;35.62;101051.47;144991;576;6000;-83
2021/07/12 09:19:20;;;;;;;11.80;4.97;;;;;;;31.72;36.99;101050.94;144992;563;6002;-84
2021/07/12 09:21:56;;;;;;;9.10;5.05;;;;;;;31.72;37.19;101055.41;144992;587;6002;-83
2021/07/12 09:24:34;;;;;;;6.80;5.07;;;;;;;31.43;38.61;101058.66;144992;585;6002;-83
2021/07/12 09:27:15;;;;;;;7.07;4.90;;;;;;;31.45;38.84;101042.47;144992;592;6002;-83
2021/07/12 09:29:47;;;;;;;5.70;5.05;;;;;;;31.08;40.40;101042.59;144992;570;6002;-84
2021/07/12 09:32:16;;;;;;;8.57;4.80;;;;;;;31.10;40.50;101043.41;144992;633;6002;-82
2021/07/12 09:34:43;;;;;;;6.70;4.65;;;;;;;31.23;40.16;101043.63;144992;569;6002;-81
2021/07/12 09:37:14;;;;;;;7.32;4.90;;;;;;;30.98;40.77;101035.97;144992;570;6002;-83
2021/07/12 09:39:42;;;;;;;6.60;5.40;;;;;;;31.04;41.12;101035.66;144992;585;6002;-82
2021/07/12 09:42:11;;;;;;;6.22;4.87;;;;;;;31.03;42.24;101036.59;144992;569;6002;-84
2021/07/12 09:44:41;;;;;;;6.62;5.47;;;;;;;31.07;41.89;101045.38;144992;631;6002;-83
2021/07/12 09:47:16;;;;;;;8.77;4.55;;;;;;;30.93;42.60;101049.56;144992;638;6002;-84
2021/07/12 09:49:43;;;;;;;6.15;4.90;;;;;;;30.98;42.34;101053.87;144992;569;6002;-83
2021/07/12 09:52:15;;;;;;;9.63;5.10;;;;;;;31.09;42.83;101056.88;144992;580;6002;-82
2021/07/12 09:54:43;;;;;;;7.70;5.05;;;;;;;31.19;42.70;101047.41;144992;620;6002;-84
2021/07/12 09:57:17;;;;;;;7.35;5.35;;;;;;;31.23;43.17;101053.50;144992;613;6002;-84
2021/07/12 09:59:54;;;;;;;5.20;4.70;;;;;;;31.22;43.37;101052.59;144991;673;6002;-83
2021/07/12 10:02:24;;;;;;;8.32;5.30;;;;;;;31.28;43.41;101054.97;144992;585;6002;-80
2021/07/12 10:04:55;;;;;;;6.85;4.85;;;;;;;31.29;43.76;101053.16;144992;584;6002;-83
2021/07/12 10:07:23;;;;;;;9.43;5.37;;;;;;;31.20;43.90;101049.16;144992;552;6002;-81
2021/07/12 10:09:49;;;;;;;5.35;4.85;;;;;;;31.16;44.26;101044.03;144992;565;6002;-85
2021/07/12 10:12:17;;;;;;;6.18;5.12;;;;;;;30.98;45.40;101057.41;144992;661;6002;-85
2021/07/12 10:14:43;;;;;;;5.53;4.72;;;;;;;31.20;44.61;101042.94;144992;585;6002;-83
2021/07/12 10:17:12;;;;;;;5.87;5.28;;;;;;;31.17;45.81;101045.75;144992;563;6002;-83
2021/07/12 10:19:40;;;;;;;7.78;5.35;;;;;;;31.24;44.12;101050.72;144992;581;6002;-85
2021/07/12 10:22:07;;;;;;;6.37;5.15;;;;;;;31.14;45.08;101046.78;144992;565;6002;-84
2021/07/12 10:24:42;;;;;;;8.10;4.80;;;;;;;31.05;44.54;101050.81;144992;576;6002;-82
2021/07/12 10:27:28;;;;;;;9.32;5.05;;;;;;;30.92;45.48;101044.28;144992;577;6002;-83
2021/07/12 10:29:57;;;;;;;5.62;5.03;;;;;;;31.03;45.40;101052.69;144992;575;6002;-86
2021/07/12 10:32:25;;;;;;;11.40;5.32;;;;;;;30.93;45.40;101044.22;144992;582;6002;-82
2021/07/12 10:34:57;;;;;;;8.20;4.62;;;;;;;30.98;45.20;101035.97;144991;593;6002;-83
2021/07/12 10:37:30;;;;;;;7.72;5.20;;;;;;;30.98;45.25;101038.66;144992;601;6002;-83
2021/07/12 10:40:11;;;;;;;6.10;5.10;;;;;;;30.92;45.79;101044.28;144992;616;6002;-81
2021/07/12 10:42:49;;;;;;;6.15;5.10;;;;;;;30.91;46.17;101043.44;144992;594;6002;-84
2021/07/12 10:45:21;;;;;;;8.40;5.30;;;;;;;30.90;45.58;101046.19;144992;610;6002;-85
2021/07/12 10:48:19;;;;;;;6.03;4.80;;;;;;;30.84;45.50;101044.66;144992;563;6002;-83
2021/07/12 10:50:51;;;;;;;12.40;5.53;;;;;;;30.87;45.57;101040.97;144992;595;6005;-84
2021/07/12 10:53:36;;;;;;;6.10;5.00;;;;;;;30.82;46.38;101037.66;144992;609;6004;-83
2021/07/12 10:56:07;;;;;;;;;;;;;;;30.93;46.29;101041.53;144997;911;6002;-84
2021/07/12 10:58:43;;;;;;;9.85;5.70;;;;;;;30.92;45.99;101037.09;144997;578;6002;-83
2021/07/12 11:01:14;;;;;;;7.35;5.05;;;;;;;31.04;46.19;101042.84;144992;667;6002;-85
2021/07/12 11:03:50;;;;;;;7.95;5.20;;;;;;;31.13;46.13;101038.81;144992;605;6002;-84
2021/07/12 11:06:22;;;;;;;7.93;5.62;;;;;;;31.08;46.46;101034.53;144992;564;6002;-83
2021/07/12 11:08:58;;;;;;;7.22;5.25;;;;;;;31.16;46.02;101047.56;144992;569;6002;-81
2021/07/12 11:11:44;;;;;;;7.62;5.07;;;;;;;31.19;46.06;101025.94;144992;573;6002;-84
2021/07/12 11:14:19;;;;;;;5.55;4.85;;;;;;;31.18;46.44;101034.97;144992;599;6004;-82
2021/07/12 11:16:47;;;;;;;8.05;4.95;;;;;;;31.13;47.25;101022.72;144992;608;6004;-83
2021/07/12 11:19:32;;;;;;;5.32;4.57;;;;;;;31.01;48.86;101029.59;144992;568;6004;-83
2021/07/12 11:22:51;;;;;;;7.15;4.93;;;;;;;31.08;47.36;101028.31;144992;585;6004;-82
2021/07/12 11:25:36;;;;;;;8.75;5.45;;;;;;;31.08;47.60;101023.81;144992;577;6002;-84
2021/07/12 11:28:17;;;;;;;6.03;4.80;;;;;;;31.05;47.57;101032.03;144992;586;6002;-83
2021/07/12 11:30:44;;;;;;;6.03;5.07;;;;;;;31.25;47.51;101032.81;144992;592;6002;-84
2021/07/12 11:33:29;;;;;;;6.10;4.97;;;;;;;31.30;46.83;101025.41;144992;586;6002;-82
2021/07/12 11:35:56;;;;;;;6.20;4.70;;;;;;;31.28;46.97;101014.75;144992;626;6002;-84
2021/07/12 11:38:23;;;;;;;10.73;5.97;;;;;;;31.24;48.04;101028.41;144992;586;6002;-83
2021/07/12 11:40:52;;;;;;;7.50;5.15;;;;;;;31.24;48.37;101020.34;144992;565;6002;-84
2021/07/12 11:43:28;;;;;;;8.60;5.35;;;;;;;31.09;48.63;101017.53;144992;586;6002;-82
2021/07/12 11:45:59;;;;;;;8.20;5.25;;;;;;;31.31;47.36;101010.16;144992;591;6002;-84
2021/07/12 11:48:25;;;;;;;9.68;7.60;;;;;;;31.26;48.47;101010.41;144992;601;6002;-82
2021/07/12 11:50:52;;;;;;;7.95;5.65;;;;;;;31.38;47.56;101007.06;144992;611;6002;-83